sensor_id;sensor_type;location;lat;lon;timestamp;P1;durP1;ratioP1;P2;durP2;ratioP2
72286;SDS011;60221;45.696;16.076;2024-02-16T00:01:43;16.50;;;6.30;;
72286;SDS011;60221;45.696;16.076;2024-02-16T00:04:09;27.40;;;11.00;;
72286;SDS011;60221;45.696;16.076;2024-02-16T00:06:36;25.00;;;11.20;;
72286;SDS011;60221;45.696;16.076;2024-02-16T00:09:03;29.10;;;12.00;;
72286;SDS011;60221;45.696;16.076;2024-02-16T00:11:30;32.10;;;12.90;;
72286;SDS011;60221;45.696;16.076;2024-02-16T00:13:58;28.70;;;13.90;;
72286;SDS011;60221;45.696;16.076;2024-02-16T00:16:25;34.00;;;14.40;;
72286;SDS011;60221;45.696;16.076;2024-02-16T00:18:52;29.20;;;12.80;;
72286;SDS011;60221;45.696;16.076;2024-02-16T00:21:19;30.70;;;12.40;;
72286;SDS011;60221;45.696;16.076;2024-02-16T00:23:46;30.70;;;13.00;;
72286;SDS011;60221;45.696;16.076;2024-02-16T00:26:13;28.30;;;12.30;;
72286;SDS011;60221;45.696;16.076;2024-02-16T00:28:40;24.80;;;12.30;;
72286;SDS011;60221;45.696;16.076;2024-02-16T00:31:08;26.80;;;12.00;;
72286;SDS011;60221;45.696;16.076;2024-02-16T00:33:35;26.50;;;11.40;;
72286;SDS011;60221;45.696;16.076;2024-02-16T00:36:02;24.50;;;10.10;;
72286;SDS011;60221;45.696;16.076;2024-02-16T00:38:29;22.40;;;9.40;;
72286;SDS011;60221;45.696;16.076;2024-02-16T00:40:56;23.60;;;8.70;;
72286;SDS011;60221;45.696;16.076;2024-02-16T00:43:23;20.60;;;8.50;;
72286;SDS011;60221;45.696;16.076;2024-02-16T00:45:50;22.40;;;8.50;;
72286;SDS011;60221;45.696;16.076;2024-02-16T00:48:17;16.10;;;7.10;;
72286;SDS011;60221;45.696;16.076;2024-02-16T00:50:45;15.10;;;6.10;;
72286;SDS011;60221;45.696;16.076;2024-02-16T00:53:12;14.30;;;5.50;;
72286;SDS011;60221;45.696;16.076;2024-02-16T00:55:38;14.40;;;6.80;;
72286;SDS011;60221;45.696;16.076;2024-02-16T00:58:08;17.10;;;6.30;;
72286;SDS011;60221;45.696;16.076;2024-02-16T01:00:35;12.20;;;5.60;;
72286;SDS011;60221;45.696;16.076;2024-02-16T01:03:02;12.10;;;5.10;;
72286;SDS011;60221;45.696;16.076;2024-02-16T01:05:29;13.90;;;5.00;;
72286;SDS011;60221;45.696;16.076;2024-02-16T01:07:56;11.90;;;5.10;;
72286;SDS011;60221;45.696;16.076;2024-02-16T01:10:23;11.60;;;4.50;;
72286;SDS011;60221;45.696;16.076;2024-02-16T01:12:50;14.00;;;6.00;;
72286;SDS011;60221;45.696;16.076;2024-02-16T01:15:19;13.50;;;4.90;;
72286;SDS011;60221;45.696;16.076;2024-02-16T01:17:46;13.30;;;5.40;;
72286;SDS011;60221;45.696;16.076;2024-02-16T01:20:13;13.20;;;5.20;;
72286;SDS011;60221;45.696;16.076;2024-02-16T01:22:40;13.00;;;5.10;;
72286;SDS011;60221;45.696;16.076;2024-02-16T01:25:07;13.00;;;5.40;;
72286;SDS011;60221;45.696;16.076;2024-02-16T01:27:35;14.40;;;5.80;;
72286;SDS011;60221;45.696;16.076;2024-02-16T01:30:02;15.80;;;5.90;;
72286;SDS011;60221;45.696;16.076;2024-02-16T01:32:30;17.40;;;6.40;;
72286;SDS011;60221;45.696;16.076;2024-02-16T01:34:57;16.90;;;6.50;;
72286;SDS011;60221;45.696;16.076;2024-02-16T01:37:25;15.40;;;5.60;;
72286;SDS011;60221;45.696;16.076;2024-02-16T01:39:52;11.90;;;4.50;;
72286;SDS011;60221;45.696;16.076;2024-02-16T01:42:19;14.20;;;5.30;;
72286;SDS011;60221;45.696;16.076;2024-02-16T01:44:46;12.80;;;4.90;;
72286;SDS011;60221;45.696;16.076;2024-02-16T01:47:13;10.20;;;4.20;;
72286;SDS011;60221;45.696;16.076;2024-02-16T01:49:41;13.90;;;5.00;;
72286;SDS011;60221;45.696;16.076;2024-02-16T01:52:08;13.30;;;4.80;;
72286;SDS011;60221;45.696;16.076;2024-02-16T01:54:36;13.00;;;5.20;;
72286;SDS011;60221;45.696;16.076;2024-02-16T01:57:04;11.60;;;4.90;;
72286;SDS011;60221;45.696;16.076;2024-02-16T01:59:32;15.80;;;5.60;;
72286;SDS011;60221;45.696;16.076;2024-02-16T02:02:00;15.50;;;6.90;;
72286;SDS011;60221;45.696;16.076;2024-02-16T02:04:27;13.50;;;6.10;;
72286;SDS011;60221;45.696;16.076;2024-02-16T02:06:54;15.80;;;5.90;;
72286;SDS011;60221;45.696;16.076;2024-02-16T02:09:21;14.30;;;5.90;;
72286;SDS011;60221;45.696;16.076;2024-02-16T02:11:48;17.10;;;6.40;;
72286;SDS011;60221;45.696;16.076;2024-02-16T02:14:15;12.90;;;5.60;;
72286;SDS011;60221;45.696;16.076;2024-02-16T02:16:42;15.50;;;5.60;;
72286;SDS011;60221;45.696;16.076;2024-02-16T02:19:21;13.20;;;5.70;;
72286;SDS011;60221;45.696;16.076;2024-02-16T02:21:48;16.00;;;5.50;;
72286;SDS011;60221;45.696;16.076;2024-02-16T02:24:15;17.30;;;6.80;;
72286;SDS011;60221;45.696;16.076;2024-02-16T02:26:42;14.30;;;6.40;;
72286;SDS011;60221;45.696;16.076;2024-02-16T02:29:09;14.30;;;6.20;;
72286;SDS011;60221;45.696;16.076;2024-02-16T02:31:36;15.30;;;6.00;;
72286;SDS011;60221;45.696;16.076;2024-02-16T02:34:03;17.50;;;5.90;;
72286;SDS011;60221;45.696;16.076;2024-02-16T02:36:32;17.60;;;7.40;;
72286;SDS011;60221;45.696;16.076;2024-02-16T02:38:59;18.50;;;7.70;;
72286;SDS011;60221;45.696;16.076;2024-02-16T02:41:26;17.00;;;7.40;;
72286;SDS011;60221;45.696;16.076;2024-02-16T02:43:53;19.30;;;8.10;;
72286;SDS011;60221;45.696;16.076;2024-02-16T02:46:22;20.60;;;7.80;;
72286;SDS011;60221;45.696;16.076;2024-02-16T02:48:50;19.80;;;7.40;;
72286;SDS011;60221;45.696;16.076;2024-02-16T02:51:18;15.30;;;7.20;;
72286;SDS011;60221;45.696;16.076;2024-02-16T02:53:45;18.50;;;7.80;;
72286;SDS011;60221;45.696;16.076;2024-02-16T02:56:12;19.70;;;7.60;;
72286;SDS011;60221;45.696;16.076;2024-02-16T02:58:39;16.50;;;6.90;;
72286;SDS011;60221;45.696;16.076;2024-02-16T03:01:06;20.10;;;8.00;;
72286;SDS011;60221;45.696;16.076;2024-02-16T03:03:35;17.60;;;7.40;;
72286;SDS011;60221;45.696;16.076;2024-02-16T03:06:02;18.90;;;7.60;;
72286;SDS011;60221;45.696;16.076;2024-02-16T03:08:31;16.80;;;7.30;;
72286;SDS011;60221;45.696;16.076;2024-02-16T03:10:58;17.40;;;7.40;;
72286;SDS011;60221;45.696;16.076;2024-02-16T03:13:28;16.10;;;6.90;;
72286;SDS011;60221;45.696;16.076;2024-02-16T03:15:55;17.00;;;7.50;;
72286;SDS011;60221;45.696;16.076;2024-02-16T03:18:22;17.50;;;7.00;;
72286;SDS011;60221;45.696;16.076;2024-02-16T03:20:49;16.10;;;6.90;;
72286;SDS011;60221;45.696;16.076;2024-02-16T03:23:17;17.80;;;7.60;;
72286;SDS011;60221;45.696;16.076;2024-02-16T03:25:44;14.10;;;6.60;;
72286;SDS011;60221;45.696;16.076;2024-02-16T03:28:11;16.40;;;7.40;;
72286;SDS011;60221;45.696;16.076;2024-02-16T03:30:39;15.30;;;6.70;;
72286;SDS011;60221;45.696;16.076;2024-02-16T03:33:06;17.40;;;6.50;;
72286;SDS011;60221;45.696;16.076;2024-02-16T03:35:33;15.00;;;6.70;;
72286;SDS011;60221;45.696;16.076;2024-02-16T03:38:00;17.30;;;7.80;;
72286;SDS011;60221;45.696;16.076;2024-02-16T03:40:27;18.00;;;7.90;;
72286;SDS011;60221;45.696;16.076;2024-02-16T03:42:55;18.60;;;7.90;;
72286;SDS011;60221;45.696;16.076;2024-02-16T03:45:21;19.20;;;8.80;;
72286;SDS011;60221;45.696;16.076;2024-02-16T03:47:50;17.10;;;7.60;;
72286;SDS011;60221;45.696;16.076;2024-02-16T03:50:19;16.30;;;8.40;;
72286;SDS011;60221;45.696;16.076;2024-02-16T03:52:47;18.40;;;8.90;;
72286;SDS011;60221;45.696;16.076;2024-02-16T03:55:15;17.70;;;8.70;;
72286;SDS011;60221;45.696;16.076;2024-02-16T03:57:41;18.50;;;8.30;;
72286;SDS011;60221;45.696;16.076;2024-02-16T04:00:08;21.30;;;8.60;;
72286;SDS011;60221;45.696;16.076;2024-02-16T04:02:40;17.90;;;9.00;;
72286;SDS011;60221;45.696;16.076;2024-02-16T04:05:07;18.90;;;8.50;;
72286;SDS011;60221;45.696;16.076;2024-02-16T04:07:35;18.40;;;8.80;;
72286;SDS011;60221;45.696;16.076;2024-02-16T04:10:02;16.90;;;8.60;;
72286;SDS011;60221;45.696;16.076;2024-02-16T04:12:29;18.40;;;7.70;;
72286;SDS011;60221;45.696;16.076;2024-02-16T04:14:56;18.90;;;7.70;;
72286;SDS011;60221;45.696;16.076;2024-02-16T04:17:23;18.00;;;8.20;;
72286;SDS011;60221;45.696;16.076;2024-02-16T04:19:50;18.30;;;8.90;;
72286;SDS011;60221;45.696;16.076;2024-02-16T04:22:18;17.00;;;7.70;;
72286;SDS011;60221;45.696;16.076;2024-02-16T04:24:44;17.90;;;8.20;;
72286;SDS011;60221;45.696;16.076;2024-02-16T04:27:11;16.30;;;8.00;;
72286;SDS011;60221;45.696;16.076;2024-02-16T04:29:38;18.60;;;8.30;;
72286;SDS011;60221;45.696;16.076;2024-02-16T04:32:05;18.30;;;8.20;;
72286;SDS011;60221;45.696;16.076;2024-02-16T04:34:32;19.50;;;8.30;;
72286;SDS011;60221;45.696;16.076;2024-02-16T04:37:00;19.10;;;8.40;;
72286;SDS011;60221;45.696;16.076;2024-02-16T04:39:26;16.60;;;8.30;;
72286;SDS011;60221;45.696;16.076;2024-02-16T04:41:56;18.70;;;8.00;;
72286;SDS011;60221;45.696;16.076;2024-02-16T04:44:23;17.30;;;8.20;;
72286;SDS011;60221;45.696;16.076;2024-02-16T04:46:50;20.20;;;8.90;;
72286;SDS011;60221;45.696;16.076;2024-02-16T04:49:18;18.40;;;9.10;;
72286;SDS011;60221;45.696;16.076;2024-02-16T04:51:46;17.60;;;8.60;;
72286;SDS011;60221;45.696;16.076;2024-02-16T04:54:13;21.40;;;8.80;;
72286;SDS011;60221;45.696;16.076;2024-02-16T04:56:40;20.80;;;9.20;;
72286;SDS011;60221;45.696;16.076;2024-02-16T04:59:07;19.40;;;8.90;;
72286;SDS011;60221;45.696;16.076;2024-02-16T05:01:35;18.80;;;9.50;;
72286;SDS011;60221;45.696;16.076;2024-02-16T05:04:02;20.60;;;9.70;;
72286;SDS011;60221;45.696;16.076;2024-02-16T05:06:29;20.90;;;9.20;;
72286;SDS011;60221;45.696;16.076;2024-02-16T05:08:56;20.00;;;9.30;;
72286;SDS011;60221;45.696;16.076;2024-02-16T05:11:24;19.00;;;10.10;;
72286;SDS011;60221;45.696;16.076;2024-02-16T05:13:56;21.40;;;9.00;;
72286;SDS011;60221;45.696;16.076;2024-02-16T05:16:23;22.00;;;10.10;;
72286;SDS011;60221;45.696;16.076;2024-02-16T05:18:50;22.20;;;9.70;;
72286;SDS011;60221;45.696;16.076;2024-02-16T05:21:17;17.10;;;8.40;;
72286;SDS011;60221;45.696;16.076;2024-02-16T05:23:44;17.30;;;8.60;;
72286;SDS011;60221;45.696;16.076;2024-02-16T05:26:11;18.70;;;9.40;;
72286;SDS011;60221;45.696;16.076;2024-02-16T05:28:38;23.70;;;10.70;;
72286;SDS011;60221;45.696;16.076;2024-02-16T05:31:15;24.00;;;10.50;;
72286;SDS011;60221;45.696;16.076;2024-02-16T05:33:44;22.80;;;11.70;;
72286;SDS011;60221;45.696;16.076;2024-02-16T05:36:11;30.10;;;17.00;;
72286;SDS011;60221;45.696;16.076;2024-02-16T05:38:38;28.00;;;15.80;;
72286;SDS011;60221;45.696;16.076;2024-02-16T05:41:10;26.00;;;13.80;;
72286;SDS011;60221;45.696;16.076;2024-02-16T05:43:38;29.70;;;13.30;;
72286;SDS011;60221;45.696;16.076;2024-02-16T05:46:05;23.90;;;11.60;;
72286;SDS011;60221;45.696;16.076;2024-02-16T05:48:34;23.30;;;11.20;;
72286;SDS011;60221;45.696;16.076;2024-02-16T05:51:04;20.20;;;10.40;;
72286;SDS011;60221;45.696;16.076;2024-02-16T05:53:32;20.80;;;10.00;;
72286;SDS011;60221;45.696;16.076;2024-02-16T05:56:00;22.50;;;10.20;;
72286;SDS011;60221;45.696;16.076;2024-02-16T05:58:27;20.60;;;10.50;;
72286;SDS011;60221;45.696;16.076;2024-02-16T06:00:55;24.30;;;9.90;;
72286;SDS011;60221;45.696;16.076;2024-02-16T06:03:24;20.90;;;10.40;;
72286;SDS011;60221;45.696;16.076;2024-02-16T06:05:51;22.70;;;9.90;;
72286;SDS011;60221;45.696;16.076;2024-02-16T06:08:18;21.90;;;9.80;;
72286;SDS011;60221;45.696;16.076;2024-02-16T06:10:46;28.00;;;11.00;;
72286;SDS011;60221;45.696;16.076;2024-02-16T06:13:20;18.60;;;9.30;;
72286;SDS011;60221;45.696;16.076;2024-02-16T06:15:48;20.60;;;10.50;;
72286;SDS011;60221;45.696;16.076;2024-02-16T06:18:15;23.20;;;11.30;;
72286;SDS011;60221;45.696;16.076;2024-02-16T06:20:42;23.40;;;10.70;;
72286;SDS011;60221;45.696;16.076;2024-02-16T06:23:09;24.70;;;9.90;;
72286;SDS011;60221;45.696;16.076;2024-02-16T06:25:36;18.20;;;9.30;;
72286;SDS011;60221;45.696;16.076;2024-02-16T06:28:03;26.10;;;10.90;;
72286;SDS011;60221;45.696;16.076;2024-02-16T06:30:31;24.60;;;11.50;;
72286;SDS011;60221;45.696;16.076;2024-02-16T06:32:58;21.50;;;10.50;;
72286;SDS011;60221;45.696;16.076;2024-02-16T06:35:25;24.00;;;11.70;;
72286;SDS011;60221;45.696;16.076;2024-02-16T06:37:52;22.60;;;11.40;;
72286;SDS011;60221;45.696;16.076;2024-02-16T06:40:20;23.50;;;11.60;;
72286;SDS011;60221;45.696;16.076;2024-02-16T06:42:48;20.20;;;10.30;;
72286;SDS011;60221;45.696;16.076;2024-02-16T06:45:15;22.60;;;9.80;;
72286;SDS011;60221;45.696;16.076;2024-02-16T06:47:42;17.70;;;8.80;;
72286;SDS011;60221;45.696;16.076;2024-02-16T06:50:09;19.70;;;9.30;;
72286;SDS011;60221;45.696;16.076;2024-02-16T06:52:36;20.40;;;9.40;;
72286;SDS011;60221;45.696;16.076;2024-02-16T06:55:04;17.40;;;9.50;;
72286;SDS011;60221;45.696;16.076;2024-02-16T06:57:31;21.10;;;9.60;;
72286;SDS011;60221;45.696;16.076;2024-02-16T06:59:58;19.40;;;10.10;;
72286;SDS011;60221;45.696;16.076;2024-02-16T07:02:25;22.20;;;10.80;;
72286;SDS011;60221;45.696;16.076;2024-02-16T07:04:52;22.40;;;10.90;;
72286;SDS011;60221;45.696;16.076;2024-02-16T07:07:19;27.70;;;12.10;;
72286;SDS011;60221;45.696;16.076;2024-02-16T07:09:46;23.90;;;11.80;;
72286;SDS011;60221;45.696;16.076;2024-02-16T07:12:13;27.20;;;11.90;;
72286;SDS011;60221;45.696;16.076;2024-02-16T07:14:40;25.60;;;12.90;;
72286;SDS011;60221;45.696;16.076;2024-02-16T07:17:07;24.30;;;13.00;;
72286;SDS011;60221;45.696;16.076;2024-02-16T07:19:36;25.00;;;12.30;;
72286;SDS011;60221;45.696;16.076;2024-02-16T07:22:04;22.10;;;11.50;;
72286;SDS011;60221;45.696;16.076;2024-02-16T07:24:33;24.40;;;12.10;;
72286;SDS011;60221;45.696;16.076;2024-02-16T07:27:00;26.30;;;13.80;;
72286;SDS011;60221;45.696;16.076;2024-02-16T07:29:28;33.30;;;16.60;;
72286;SDS011;60221;45.696;16.076;2024-02-16T07:31:55;27.30;;;15.00;;
72286;SDS011;60221;45.696;16.076;2024-02-16T07:34:23;28.10;;;15.10;;
72286;SDS011;60221;45.696;16.076;2024-02-16T07:36:50;25.90;;;14.40;;
72286;SDS011;60221;45.696;16.076;2024-02-16T07:39:19;25.70;;;14.30;;
72286;SDS011;60221;45.696;16.076;2024-02-16T07:41:49;27.40;;;14.70;;
72286;SDS011;60221;45.696;16.076;2024-02-16T07:44:16;30.70;;;16.10;;
72286;SDS011;60221;45.696;16.076;2024-02-16T07:46:43;30.00;;;16.30;;
72286;SDS011;60221;45.696;16.076;2024-02-16T07:49:13;30.70;;;15.40;;
72286;SDS011;60221;45.696;16.076;2024-02-16T07:51:40;29.60;;;14.70;;
72286;SDS011;60221;45.696;16.076;2024-02-16T07:54:07;44.00;;;24.00;;
72286;SDS011;60221;45.696;16.076;2024-02-16T07:56:36;48.30;;;22.90;;
72286;SDS011;60221;45.696;16.076;2024-02-16T07:59:03;33.20;;;15.80;;
72286;SDS011;60221;45.696;16.076;2024-02-16T08:01:32;30.70;;;16.00;;
72286;SDS011;60221;45.696;16.076;2024-02-16T08:04:20;31.80;;;15.60;;
72286;SDS011;60221;45.696;16.076;2024-02-16T08:06:47;27.60;;;13.90;;
72286;SDS011;60221;45.696;16.076;2024-02-16T08:09:14;24.00;;;12.70;;
72286;SDS011;60221;45.696;16.076;2024-02-16T08:11:42;24.30;;;11.60;;
72286;SDS011;60221;45.696;16.076;2024-02-16T08:14:09;22.50;;;12.50;;
72286;SDS011;60221;45.696;16.076;2024-02-16T08:16:37;24.90;;;12.10;;
72286;SDS011;60221;45.696;16.076;2024-02-16T08:19:05;25.60;;;11.80;;
72286;SDS011;60221;45.696;16.076;2024-02-16T08:21:32;24.20;;;11.70;;
72286;SDS011;60221;45.696;16.076;2024-02-16T08:23:59;26.80;;;11.20;;
72286;SDS011;60221;45.696;16.076;2024-02-16T08:26:28;25.00;;;10.60;;
72286;SDS011;60221;45.696;16.076;2024-02-16T08:29:04;25.30;;;11.00;;
72286;SDS011;60221;45.696;16.076;2024-02-16T08:31:32;23.30;;;11.50;;
72286;SDS011;60221;45.696;16.076;2024-02-16T08:33:59;24.90;;;10.60;;
72286;SDS011;60221;45.696;16.076;2024-02-16T08:36:28;21.50;;;11.50;;
72286;SDS011;60221;45.696;16.076;2024-02-16T08:38:57;25.30;;;10.40;;
72286;SDS011;60221;45.696;16.076;2024-02-16T08:41:24;21.60;;;11.00;;
72286;SDS011;60221;45.696;16.076;2024-02-16T08:43:51;26.40;;;12.20;;
72286;SDS011;60221;45.696;16.076;2024-02-16T08:46:18;27.50;;;13.90;;
72286;SDS011;60221;45.696;16.076;2024-02-16T08:48:45;28.00;;;13.70;;
72286;SDS011;60221;45.696;16.076;2024-02-16T08:51:12;21.90;;;12.20;;
72286;SDS011;60221;45.696;16.076;2024-02-16T08:53:40;22.30;;;11.80;;
72286;SDS011;60221;45.696;16.076;2024-02-16T08:56:10;19.80;;;9.30;;
72286;SDS011;60221;45.696;16.076;2024-02-16T08:58:40;22.00;;;10.10;;
72286;SDS011;60221;45.696;16.076;2024-02-16T09:01:07;27.50;;;11.30;;
72286;SDS011;60221;45.696;16.076;2024-02-16T09:03:34;21.00;;;10.60;;
72286;SDS011;60221;45.696;16.076;2024-02-16T09:06:05;22.90;;;11.40;;
72286;SDS011;60221;45.696;16.076;2024-02-16T09:08:32;21.80;;;10.90;;
72286;SDS011;60221;45.696;16.076;2024-02-16T09:11:02;23.90;;;11.10;;
72286;SDS011;60221;45.696;16.076;2024-02-16T09:13:32;24.30;;;10.70;;
72286;SDS011;60221;45.696;16.076;2024-02-16T09:15:59;20.80;;;9.90;;
72286;SDS011;60221;45.696;16.076;2024-02-16T09:18:27;18.60;;;9.70;;
72286;SDS011;60221;45.696;16.076;2024-02-16T09:20:54;20.20;;;10.30;;
72286;SDS011;60221;45.696;16.076;2024-02-16T09:23:21;21.60;;;10.50;;
72286;SDS011;60221;45.696;16.076;2024-02-16T09:25:48;19.50;;;9.20;;
72286;SDS011;60221;45.696;16.076;2024-02-16T09:28:17;18.40;;;8.40;;
72286;SDS011;60221;45.696;16.076;2024-02-16T09:30:55;19.00;;;9.20;;
72286;SDS011;60221;45.696;16.076;2024-02-16T09:33:23;24.00;;;12.80;;
72286;SDS011;60221;45.696;16.076;2024-02-16T09:35:51;20.30;;;9.80;;
72286;SDS011;60221;45.696;16.076;2024-02-16T09:38:18;22.30;;;9.80;;
72286;SDS011;60221;45.696;16.076;2024-02-16T09:40:44;25.80;;;11.20;;
72286;SDS011;60221;45.696;16.076;2024-02-16T09:43:22;28.40;;;12.70;;
72286;SDS011;60221;45.696;16.076;2024-02-16T09:45:52;26.90;;;12.30;;
72286;SDS011;60221;45.696;16.076;2024-02-16T09:48:19;28.20;;;15.40;;
72286;SDS011;60221;45.696;16.076;2024-02-16T09:50:46;25.40;;;12.30;;
72286;SDS011;60221;45.696;16.076;2024-02-16T09:53:14;22.30;;;11.40;;
72286;SDS011;60221;45.696;16.076;2024-02-16T09:55:42;20.40;;;10.00;;
72286;SDS011;60221;45.696;16.076;2024-02-16T09:58:10;20.70;;;11.30;;
72286;SDS011;60221;45.696;16.076;2024-02-16T10:00:54;22.00;;;11.00;;
72286;SDS011;60221;45.696;16.076;2024-02-16T10:03:26;26.00;;;12.20;;
72286;SDS011;60221;45.696;16.076;2024-02-16T10:06:03;23.50;;;11.10;;
72286;SDS011;60221;45.696;16.076;2024-02-16T10:08:31;19.80;;;10.20;;
72286;SDS011;60221;45.696;16.076;2024-02-16T10:11:04;19.50;;;10.00;;
72286;SDS011;60221;45.696;16.076;2024-02-16T10:13:31;16.60;;;8.50;;
72286;SDS011;60221;45.696;16.076;2024-02-16T10:16:05;18.90;;;9.00;;
72286;SDS011;60221;45.696;16.076;2024-02-16T10:18:36;16.90;;;8.30;;
72286;SDS011;60221;45.696;16.076;2024-02-16T10:21:03;19.30;;;10.00;;
72286;SDS011;60221;45.696;16.076;2024-02-16T10:23:30;18.60;;;8.00;;
72286;SDS011;60221;45.696;16.076;2024-02-16T10:26:00;15.20;;;7.90;;
72286;SDS011;60221;45.696;16.076;2024-02-16T10:28:28;15.60;;;7.70;;
72286;SDS011;60221;45.696;16.076;2024-02-16T10:30:58;14.10;;;7.20;;
72286;SDS011;60221;45.696;16.076;2024-02-16T10:33:28;13.30;;;7.00;;
72286;SDS011;60221;45.696;16.076;2024-02-16T10:35:58;12.50;;;6.20;;
72286;SDS011;60221;45.696;16.076;2024-02-16T10:38:27;11.20;;;5.50;;
72286;SDS011;60221;45.696;16.076;2024-02-16T10:40:54;13.20;;;6.70;;
72286;SDS011;60221;45.696;16.076;2024-02-16T10:43:23;10.90;;;5.10;;
72286;SDS011;60221;45.696;16.076;2024-02-16T10:45:50;11.30;;;5.20;;
72286;SDS011;60221;45.696;16.076;2024-02-16T10:48:20;13.10;;;6.00;;
72286;SDS011;60221;45.696;16.076;2024-02-16T10:50:47;11.30;;;4.30;;
72286;SDS011;60221;45.696;16.076;2024-02-16T10:53:27;9.80;;;4.80;;
72286;SDS011;60221;45.696;16.076;2024-02-16T10:56:02;10.90;;;5.60;;
72286;SDS011;60221;45.696;16.076;2024-02-16T10:58:31;12.80;;;5.10;;
72286;SDS011;60221;45.696;16.076;2024-02-16T11:01:07;13.40;;;5.80;;
72286;SDS011;60221;45.696;16.076;2024-02-16T11:03:45;11.80;;;6.60;;
72286;SDS011;60221;45.696;16.076;2024-02-16T11:06:17;10.20;;;4.50;;
72286;SDS011;60221;45.696;16.076;2024-02-16T11:08:48;15.00;;;8.80;;
72286;SDS011;60221;45.696;16.076;2024-02-16T11:11:24;13.40;;;6.40;;
72286;SDS011;60221;45.696;16.076;2024-02-16T11:13:54;10.50;;;5.30;;
72286;SDS011;60221;45.696;16.076;2024-02-16T11:16:22;10.40;;;4.70;;
72286;SDS011;60221;45.696;16.076;2024-02-16T11:18:54;9.90;;;4.40;;
72286;SDS011;60221;45.696;16.076;2024-02-16T11:21:22;11.30;;;5.00;;
72286;SDS011;60221;45.696;16.076;2024-02-16T11:23:51;10.60;;;4.40;;
72286;SDS011;60221;45.696;16.076;2024-02-16T11:26:21;8.30;;;3.90;;
72286;SDS011;60221;45.696;16.076;2024-02-16T11:28:51;12.50;;;3.90;;
72286;SDS011;60221;45.696;16.076;2024-02-16T11:31:19;7.80;;;3.30;;
72286;SDS011;60221;45.696;16.076;2024-02-16T11:33:47;8.10;;;3.40;;
72286;SDS011;60221;45.696;16.076;2024-02-16T11:36:16;9.90;;;4.00;;
72286;SDS011;60221;45.696;16.076;2024-02-16T11:38:46;10.10;;;3.80;;
72286;SDS011;60221;45.696;16.076;2024-02-16T11:41:14;8.50;;;4.00;;
72286;SDS011;60221;45.696;16.076;2024-02-16T11:43:43;7.90;;;3.30;;
72286;SDS011;60221;45.696;16.076;2024-02-16T11:46:13;11.40;;;4.20;;
72286;SDS011;60221;45.696;16.076;2024-02-16T11:48:40;9.50;;;3.00;;
72286;SDS011;60221;45.696;16.076;2024-02-16T11:51:08;10.20;;;3.90;;
72286;SDS011;60221;45.696;16.076;2024-02-16T11:53:35;9.60;;;3.60;;
72286;SDS011;60221;45.696;16.076;2024-02-16T11:56:02;9.30;;;3.60;;
72286;SDS011;60221;45.696;16.076;2024-02-16T11:58:30;9.20;;;3.70;;
72286;SDS011;60221;45.696;16.076;2024-02-16T12:00:57;8.50;;;3.60;;
72286;SDS011;60221;45.696;16.076;2024-02-16T12:03:29;9.30;;;3.60;;
72286;SDS011;60221;45.696;16.076;2024-02-16T12:05:57;8.60;;;3.40;;
72286;SDS011;60221;45.696;16.076;2024-02-16T12:08:31;8.30;;;3.60;;
72286;SDS011;60221;45.696;16.076;2024-02-16T12:10:58;9.60;;;3.50;;
72286;SDS011;60221;45.696;16.076;2024-02-16T12:13:25;10.40;;;4.50;;
72286;SDS011;60221;45.696;16.076;2024-02-16T12:15:53;9.10;;;3.50;;
72286;SDS011;60221;45.696;16.076;2024-02-16T12:18:24;9.00;;;3.60;;
72286;SDS011;60221;45.696;16.076;2024-02-16T12:23:28;9.40;;;4.10;;
72286;SDS011;60221;45.696;16.076;2024-02-16T12:25:57;8.60;;;3.60;;
72286;SDS011;60221;45.696;16.076;2024-02-16T12:28:26;10.50;;;3.50;;
72286;SDS011;60221;45.696;16.076;2024-02-16T12:30:54;8.60;;;3.50;;
72286;SDS011;60221;45.696;16.076;2024-02-16T12:33:24;7.60;;;3.20;;
72286;SDS011;60221;45.696;16.076;2024-02-16T12:35:51;10.40;;;3.60;;
72286;SDS011;60221;45.696;16.076;2024-02-16T12:38:18;10.10;;;3.20;;
72286;SDS011;60221;45.696;16.076;2024-02-16T12:40:46;8.40;;;3.30;;
72286;SDS011;60221;45.696;16.076;2024-02-16T12:43:13;10.20;;;3.30;;
72286;SDS011;60221;45.696;16.076;2024-02-16T12:45:40;10.40;;;4.40;;
72286;SDS011;60221;45.696;16.076;2024-02-16T12:48:08;11.90;;;4.40;;
72286;SDS011;60221;45.696;16.076;2024-02-16T12:50:40;8.70;;;3.90;;
72286;SDS011;60221;45.696;16.076;2024-02-16T12:53:09;7.50;;;3.40;;
72286;SDS011;60221;45.696;16.076;2024-02-16T12:55:36;7.90;;;3.70;;
72286;SDS011;60221;45.696;16.076;2024-02-16T12:58:03;9.00;;;3.60;;
72286;SDS011;60221;45.696;16.076;2024-02-16T13:00:30;9.50;;;3.60;;
72286;SDS011;60221;45.696;16.076;2024-02-16T13:02:57;8.70;;;3.50;;
72286;SDS011;60221;45.696;16.076;2024-02-16T13:05:24;10.00;;;3.80;;
72286;SDS011;60221;45.696;16.076;2024-02-16T13:07:52;8.90;;;4.00;;
72286;SDS011;60221;45.696;16.076;2024-02-16T13:10:19;7.90;;;4.00;;
72286;SDS011;60221;45.696;16.076;2024-02-16T13:12:46;10.00;;;3.70;;
72286;SDS011;60221;45.696;16.076;2024-02-16T13:15:13;9.10;;;3.60;;
72286;SDS011;60221;45.696;16.076;2024-02-16T13:17:54;7.10;;;3.50;;
72286;SDS011;60221;45.696;16.076;2024-02-16T13:20:22;9.20;;;3.60;;
72286;SDS011;60221;45.696;16.076;2024-02-16T13:22:49;9.50;;;3.60;;
72286;SDS011;60221;45.696;16.076;2024-02-16T13:25:16;8.50;;;3.60;;
72286;SDS011;60221;45.696;16.076;2024-02-16T13:27:43;8.70;;;3.40;;
72286;SDS011;60221;45.696;16.076;2024-02-16T13:30:10;8.70;;;3.80;;
72286;SDS011;60221;45.696;16.076;2024-02-16T13:32:37;9.80;;;3.80;;
72286;SDS011;60221;45.696;16.076;2024-02-16T13:35:07;8.60;;;3.80;;
72286;SDS011;60221;45.696;16.076;2024-02-16T13:37:34;7.70;;;3.30;;
72286;SDS011;60221;45.696;16.076;2024-02-16T13:40:01;6.70;;;2.80;;
72286;SDS011;60221;45.696;16.076;2024-02-16T13:42:33;7.40;;;2.80;;
72286;SDS011;60221;45.696;16.076;2024-02-16T13:45:00;6.50;;;2.50;;
72286;SDS011;60221;45.696;16.076;2024-02-16T13:47:28;6.40;;;2.40;;
72286;SDS011;60221;45.696;16.076;2024-02-16T13:49:55;9.30;;;2.80;;
72286;SDS011;60221;45.696;16.076;2024-02-16T13:52:24;13.50;;;2.60;;
72286;SDS011;60221;45.696;16.076;2024-02-16T13:54:51;8.30;;;3.10;;
72286;SDS011;60221;45.696;16.076;2024-02-16T13:57:18;6.10;;;2.40;;
72286;SDS011;60221;45.696;16.076;2024-02-16T13:59:46;7.00;;;2.80;;
72286;SDS011;60221;45.696;16.076;2024-02-16T14:02:13;6.70;;;2.80;;
72286;SDS011;60221;45.696;16.076;2024-02-16T14:04:40;6.10;;;2.90;;
72286;SDS011;60221;45.696;16.076;2024-02-16T14:07:07;6.20;;;2.60;;
72286;SDS011;60221;45.696;16.076;2024-02-16T14:09:36;6.40;;;2.60;;
72286;SDS011;60221;45.696;16.076;2024-02-16T14:12:03;9.10;;;3.10;;
72286;SDS011;60221;45.696;16.076;2024-02-16T14:14:30;7.40;;;2.80;;
72286;SDS011;60221;45.696;16.076;2024-02-16T14:17:04;7.60;;;2.90;;
72286;SDS011;60221;45.696;16.076;2024-02-16T14:19:31;8.50;;;3.10;;
72286;SDS011;60221;45.696;16.076;2024-02-16T14:22:01;8.70;;;3.60;;
72286;SDS011;60221;45.696;16.076;2024-02-16T14:24:28;10.50;;;3.80;;
72286;SDS011;60221;45.696;16.076;2024-02-16T14:26:55;7.60;;;3.10;;